createdAt,value
2023-03-18T00:01:12.816Z,7.13
2023-03-18T00:03:40.982Z,7.75
2023-03-18T00:06:19.479Z,7.15
2023-03-18T00:08:49.211Z,7.03
2023-03-18T00:11:19.570Z,6.95
2023-03-18T00:13:49.531Z,7.32
2023-03-18T00:16:17.878Z,7.50
2023-03-18T00:18:46.000Z,7.32
2023-03-18T00:21:14.483Z,5.95
2023-03-18T00:23:43.001Z,6.82
2023-03-18T00:26:10.776Z,8.20
2023-03-18T00:28:42.313Z,6.93
2023-03-18T00:31:13.337Z,6.75
2023-03-18T00:33:46.801Z,6.53
2023-03-18T00:36:18.569Z,6.82
2023-03-18T00:38:51.179Z,7.32
2023-03-18T00:41:19.332Z,6.13
2023-03-18T00:43:57.876Z,7.03
2023-03-18T00:46:28.988Z,5.80
2023-03-18T00:49:00.793Z,7.50
2023-03-18T00:51:31.832Z,7.32
2023-03-18T00:54:03.201Z,7.38
2023-03-18T00:56:32.724Z,6.28
2023-03-18T00:59:01.446Z,6.03
2023-03-18T01:01:29.985Z,4.45
2023-03-18T01:04:00.849Z,6.15
2023-03-18T01:06:32.558Z,6.00
2023-03-18T01:09:01.901Z,8.10
2023-03-18T01:11:30.357Z,7.95
2023-03-18T01:13:59.981Z,5.25
2023-03-18T01:16:28.832Z,6.95
2023-03-18T01:18:57.520Z,5.85
2023-03-18T01:21:26.178Z,6.57
2023-03-18T01:23:57.780Z,7.15
2023-03-18T01:26:27.283Z,5.75
2023-03-18T01:28:58.030Z,7.13
2023-03-18T01:31:26.106Z,6.53
2023-03-18T01:33:58.325Z,6.38
2023-03-18T01:36:26.064Z,6.68
2023-03-18T01:39:07.947Z,6.10
2023-03-18T01:41:37.320Z,5.97
2023-03-18T01:44:14.435Z,6.78
2023-03-18T01:46:45.967Z,6.55
2023-03-18T01:49:29.068Z,5.90
2023-03-18T01:52:02.868Z,5.35
2023-03-18T01:54:34.120Z,6.35
2023-03-18T01:57:02.951Z,6.22
2023-03-18T01:59:34.098Z,5.53
2023-03-18T02:02:11.503Z,5.70
2023-03-18T02:04:46.385Z,6.00
2023-03-18T02:07:21.313Z,5.40
2023-03-18T02:09:51.311Z,5.85
2023-03-18T02:12:24.875Z,5.75
2023-03-18T02:14:57.131Z,6.05
2023-03-18T02:17:28.406Z,6.90
2023-03-18T02:20:18.957Z,5.30
2023-03-18T02:22:54.185Z,5.50
2023-03-18T02:25:50.075Z,5.47
2023-03-18T02:28:23.981Z,5.30
2023-03-18T02:30:56.349Z,4.95
2023-03-18T02:33:30.088Z,5.05
2023-03-18T02:36:04.742Z,5.72
2023-03-18T02:38:44.245Z,5.07
2023-03-18T02:41:20.744Z,5.25
2023-03-18T02:43:50.608Z,5.18
2023-03-18T02:46:41.276Z,5.55
2023-03-18T02:49:11.303Z,5.32
2023-03-18T02:51:40.074Z,5.53
2023-03-18T02:54:30.359Z,4.35
2023-03-18T02:56:59.105Z,4.95
2023-03-18T02:59:27.807Z,5.57
2023-03-18T03:01:58.222Z,4.95
2023-03-18T03:04:27.343Z,5.43
2023-03-18T03:06:57.857Z,5.13
2023-03-18T03:09:37.178Z,5.93
2023-03-18T03:12:07.985Z,4.88
2023-03-18T03:14:41.082Z,4.45
2023-03-18T03:17:10.232Z,5.03
2023-03-18T03:19:38.990Z,5.10
2023-03-18T03:22:07.670Z,3.95
2023-03-18T03:24:37.722Z,4.55
2023-03-18T03:27:07.995Z,5.03
2023-03-18T03:29:35.856Z,4.10
2023-03-18T03:32:04.551Z,4.35
2023-03-18T03:34:32.282Z,4.00
2023-03-18T03:37:00.388Z,4.53
2023-03-18T03:39:28.584Z,4.88
2023-03-18T03:41:57.103Z,4.25
2023-03-18T03:44:24.732Z,3.67
2023-03-18T03:46:53.321Z,4.53
2023-03-18T03:49:23.238Z,4.55
2023-03-18T03:51:51.828Z,4.32
2023-03-18T03:54:20.565Z,4.10
2023-03-18T03:56:49.100Z,4.57
2023-03-18T03:59:17.861Z,4.22
2023-03-18T04:02:04.957Z,4.22
2023-03-18T04:04:32.990Z,4.70
2023-03-18T04:07:01.771Z,4.85
2023-03-18T04:09:29.716Z,4.28
2023-03-18T04:11:58.191Z,4.53
2023-03-18T04:14:26.719Z,3.90
2023-03-18T04:16:58.429Z,5.10
2023-03-18T04:19:27.828Z,4.40
2023-03-18T04:21:56.923Z,4.13
2023-03-18T04:24:26.540Z,4.13
2023-03-18T04:26:55.340Z,4.03
2023-03-18T04:29:23.707Z,4.43
2023-03-18T04:31:52.056Z,4.15
2023-03-18T04:34:22.769Z,4.63
2023-03-18T04:36:51.037Z,4.57
2023-03-18T04:39:19.533Z,4.72
2023-03-18T04:41:48.468Z,4.57
2023-03-18T04:44:17.584Z,4.20
2023-03-18T04:46:56.561Z,4.53
2023-03-18T04:49:25.834Z,4.45
2023-03-18T04:51:55.658Z,4.00
2023-03-18T04:54:29.311Z,4.65
2023-03-18T04:57:01.894Z,3.83
2023-03-18T04:59:33.026Z,3.95
2023-03-18T05:02:05.116Z,4.57
2023-03-18T05:04:34.177Z,4.47
2023-03-18T05:07:02.684Z,3.95
2023-03-18T05:09:36.177Z,4.35
2023-03-18T05:12:05.846Z,5.20
2023-03-18T05:14:37.791Z,4.38
2023-03-18T05:17:06.225Z,3.75
2023-03-18T05:19:37.977Z,4.63
2023-03-18T05:22:14.231Z,3.97
2023-03-18T05:24:43.865Z,4.25
2023-03-18T05:27:12.553Z,3.75
2023-03-18T05:29:45.212Z,4.38
2023-03-18T05:32:20.831Z,4.18
2023-03-18T05:34:55.299Z,4.53
2023-03-18T05:37:24.169Z,4.00
2023-03-18T05:40:00.469Z,3.75
2023-03-18T05:42:29.588Z,3.25
2023-03-18T05:44:58.395Z,3.30
2023-03-18T05:47:28.313Z,3.63
2023-03-18T05:50:05.340Z,4.15
2023-03-18T05:52:35.718Z,4.45
2023-03-18T05:55:06.822Z,5.10
2023-03-18T05:57:39.134Z,3.95
2023-03-18T06:00:10.772Z,3.58
2023-03-18T06:02:47.246Z,3.25
2023-03-18T06:05:16.939Z,3.90
2023-03-18T06:07:47.474Z,4.40
2023-03-18T06:10:15.621Z,4.50
2023-03-18T06:12:46.076Z,4.35
2023-03-18T06:15:13.867Z,3.63
2023-03-18T06:17:42.502Z,3.33
2023-03-18T06:20:12.256Z,4.53
2023-03-18T06:22:40.750Z,3.20
2023-03-18T06:25:08.643Z,4.93
2023-03-18T06:27:39.458Z,3.60
2023-03-18T06:30:07.977Z,3.35
2023-03-18T06:32:38.633Z,4.00
2023-03-18T06:35:07.452Z,3.10
2023-03-18T06:37:39.412Z,3.75
2023-03-18T06:40:09.681Z,3.70
2023-03-18T06:42:38.559Z,4.90
2023-03-18T06:45:18.583Z,4.63
2023-03-18T06:47:53.823Z,3.90
2023-03-18T06:50:22.576Z,3.97
2023-03-18T06:52:51.146Z,4.10
2023-03-18T06:55:26.647Z,3.40
2023-03-18T06:57:55.285Z,3.45
2023-03-18T07:00:28.954Z,4.07
2023-03-18T07:02:58.529Z,3.95
2023-03-18T07:05:28.744Z,4.38
2023-03-18T07:07:57.047Z,3.72
2023-03-18T07:10:28.490Z,3.70
2023-03-18T07:13:03.661Z,3.72
2023-03-18T07:15:32.253Z,4.82
2023-03-18T07:18:03.444Z,2.95
2023-03-18T07:20:33.168Z,4.15
2023-03-18T07:23:02.074Z,3.72
2023-03-18T07:25:32.372Z,4.72
2023-03-18T07:28:01.023Z,4.03
2023-03-18T07:30:29.322Z,4.00
2023-03-18T07:32:58.315Z,4.00
2023-03-18T07:35:28.368Z,4.07
2023-03-18T07:37:57.263Z,3.20
2023-03-18T07:40:24.941Z,3.20
2023-03-18T07:42:54.117Z,3.67
2023-03-18T07:45:21.919Z,3.70
2023-03-18T07:47:50.550Z,3.72
2023-03-18T07:50:18.820Z,3.83
2023-03-18T07:52:47.978Z,3.47
2023-03-18T07:55:16.539Z,3.72
2023-03-18T07:57:44.663Z,3.22
2023-03-18T08:00:14.154Z,3.97
2023-03-18T08:02:42.841Z,3.92
2023-03-18T08:05:11.223Z,3.70
2023-03-18T08:07:39.504Z,3.80
2023-03-18T08:10:09.238Z,3.17
2023-03-18T08:12:51.659Z,3.58
2023-03-18T08:15:20.346Z,3.33
2023-03-18T08:17:48.753Z,3.78
2023-03-18T08:20:16.918Z,3.55
2023-03-18T08:22:46.256Z,3.30
2023-03-18T08:25:14.166Z,2.83
2023-03-18T08:27:42.626Z,3.92
2023-03-18T08:30:11.388Z,3.80
2023-03-18T08:32:39.534Z,3.63
2023-03-18T08:35:07.908Z,3.70
2023-03-18T08:37:37.064Z,3.53
2023-03-18T08:40:06.299Z,3.85
2023-03-18T08:42:34.450Z,4.47
2023-03-18T08:45:03.001Z,5.15
2023-03-18T08:47:32.032Z,3.65
2023-03-18T08:49:59.653Z,3.40
2023-03-18T08:52:27.907Z,3.40
2023-03-18T08:54:55.732Z,4.35
2023-03-18T08:57:24.171Z,3.55
2023-03-18T08:59:52.043Z,3.45
2023-03-18T09:02:20.769Z,3.50
2023-03-18T09:04:49.532Z,4.15
2023-03-18T09:07:19.187Z,3.40
2023-03-18T09:09:46.976Z,3.80
2023-03-18T09:12:15.658Z,3.55
2023-03-18T09:14:44.384Z,3.47
2023-03-18T09:17:13.067Z,3.15
2023-03-18T09:19:40.978Z,3.88
2023-03-18T09:22:12.433Z,3.40
2023-03-18T09:24:41.258Z,4.30
2023-03-18T09:27:09.678Z,3.65
2023-03-18T09:29:37.438Z,3.55
2023-03-18T09:32:06.332Z,3.40
2023-03-18T09:34:34.164Z,3.95
2023-03-18T09:37:02.587Z,3.10
2023-03-18T09:39:30.333Z,4.97
2023-03-18T09:42:17.348Z,3.95
2023-03-18T09:44:45.619Z,3.97
2023-03-18T09:47:36.666Z,3.55
2023-03-18T09:50:11.165Z,3.88
2023-03-18T09:52:48.953Z,3.38
2023-03-18T09:55:28.041Z,3.22
2023-03-18T09:58:03.562Z,4.03
2023-03-18T10:00:35.616Z,3.70
2023-03-18T10:03:20.156Z,3.75
2023-03-18T10:05:52.854Z,3.53
2023-03-18T10:08:52.344Z,3.78
2023-03-18T10:11:27.961Z,3.50
2023-03-18T10:14:09.297Z,3.40
2023-03-18T10:17:06.517Z,3.97
2023-03-18T10:19:35.262Z,3.58
2023-03-18T10:22:30.228Z,3.65
2023-03-18T10:25:01.777Z,3.70
2023-03-18T10:28:06.970Z,3.72
2023-03-18T10:30:46.142Z,4.10
2023-03-18T10:33:19.278Z,3.53
2023-03-18T10:36:13.748Z,3.80
2023-03-18T10:38:45.173Z,3.55
2023-03-18T10:41:17.935Z,3.87
2023-03-18T10:43:48.433Z,4.07
2023-03-18T10:46:17.377Z,3.20
2023-03-18T10:48:52.803Z,3.60
2023-03-18T10:51:31.666Z,4.03
2023-03-18T10:54:22.584Z,4.65
2023-03-18T10:56:51.253Z,4.22
2023-03-18T10:59:21.060Z,3.65
2023-03-18T11:01:54.658Z,3.50
2023-03-18T11:04:24.291Z,3.47
2023-03-18T11:07:04.006Z,3.33
2023-03-18T11:09:34.460Z,3.78
2023-03-18T11:12:29.414Z,3.45
2023-03-18T11:14:58.412Z,3.38
2023-03-18T11:17:35.691Z,3.17
2023-03-18T11:20:21.007Z,4.00
2023-03-18T11:22:52.231Z,3.80
2023-03-18T11:25:24.691Z,3.53
2023-03-18T11:28:03.600Z,3.40
2023-03-18T11:30:46.991Z,4.18
2023-03-18T11:33:17.789Z,3.35
2023-03-18T11:35:58.764Z,3.25
2023-03-18T11:38:29.883Z,3.60
2023-03-18T11:41:18.494Z,4.82
2023-03-18T11:44:11.690Z,3.40
2023-03-18T11:47:16.736Z,3.88
2023-03-18T11:49:45.018Z,4.40
2023-03-18T11:52:40.003Z,3.50
2023-03-18T11:55:18.668Z,3.58
2023-03-18T11:58:00.145Z,3.55
2023-03-18T12:00:34.601Z,3.15
2023-03-18T12:03:31.519Z,3.50
2023-03-18T12:06:14.705Z,3.55
2023-03-18T12:09:21.571Z,3.60
2023-03-18T12:11:49.414Z,4.00
2023-03-18T12:14:26.105Z,4.13
2023-03-18T12:17:08.508Z,3.88
2023-03-18T12:19:57.681Z,3.40
2023-03-18T12:22:51.608Z,3.80
2023-03-18T12:25:30.898Z,3.42
2023-03-18T12:28:11.339Z,3.25
2023-03-18T12:30:48.060Z,4.10
2023-03-18T12:33:37.499Z,3.88
2023-03-18T12:36:24.280Z,4.07
2023-03-18T12:39:31.128Z,4.13
2023-03-18T12:42:03.386Z,3.83
2023-03-18T12:44:46.951Z,3.28
2023-03-18T12:47:15.692Z,3.92
2023-03-18T12:49:57.015Z,4.15
2023-03-18T12:52:46.829Z,3.85
2023-03-18T12:55:48.125Z,3.80
2023-03-18T12:58:19.583Z,4.15
2023-03-18T13:00:54.173Z,3.83
2023-03-18T13:03:35.060Z,3.47
2023-03-18T13:06:23.326Z,3.70
2023-03-18T13:09:22.465Z,3.58
2023-03-18T13:12:12.877Z,3.33
2023-03-18T13:15:25.918Z,3.22
2023-03-18T13:17:57.466Z,3.92
2023-03-18T13:20:29.187Z,4.60
2023-03-18T13:23:16.411Z,3.25
2023-03-18T13:26:05.962Z,4.63
2023-03-18T13:28:45.435Z,3.70
2023-03-18T13:31:39.354Z,4.47
2023-03-18T13:34:45.450Z,4.20
2023-03-18T13:37:30.724Z,3.75
2023-03-18T13:40:36.857Z,4.00
2023-03-18T13:43:06.351Z,4.07
2023-03-18T13:45:39.938Z,3.42
2023-03-18T13:50:40.332Z,4.50
2023-03-18T13:53:29.699Z,3.95
2023-03-18T13:56:00.776Z,3.67
2023-03-18T13:58:41.839Z,4.63
2023-03-18T14:01:33.618Z,3.53
2023-03-18T14:04:33.954Z,3.63
2023-03-18T14:07:23.108Z,3.90
2023-03-18T14:10:18.457Z,3.70
2023-03-18T14:12:48.170Z,3.47
2023-03-18T14:15:17.004Z,4.35
2023-03-18T14:18:03.458Z,4.45
2023-03-18T14:20:39.606Z,3.33
2023-03-18T14:23:28.208Z,4.00
2023-03-18T14:26:24.730Z,4.40
2023-03-18T14:29:22.903Z,4.93
2023-03-18T14:31:58.244Z,4.07
2023-03-18T14:34:28.526Z,5.60
2023-03-18T14:36:56.813Z,4.68
2023-03-18T14:39:43.584Z,3.83
2023-03-18T14:42:32.194Z,4.65
2023-03-18T14:45:12.153Z,4.10
2023-03-18T14:47:46.822Z,3.58
2023-03-18T14:50:29.557Z,7.63
2023-03-18T14:53:03.312Z,7.03
2023-03-18T14:55:34.293Z,9.55
2023-03-18T14:58:03.272Z,4.50
2023-03-18T15:00:36.010Z,4.20
2023-03-18T15:03:11.920Z,5.05
2023-03-18T15:05:42.394Z,4.97
2023-03-18T15:08:18.653Z,3.67
2023-03-18T15:10:49.936Z,4.07
2023-03-18T15:13:20.386Z,4.85
2023-03-18T15:15:49.198Z,3.80
2023-03-18T15:18:34.569Z,4.57
2023-03-18T15:21:28.950Z,4.25
2023-03-18T15:26:30.971Z,7.85
2023-03-18T15:29:00.769Z,4.45
2023-03-18T15:31:39.296Z,5.45
2023-03-18T15:34:16.076Z,4.32
2023-03-18T15:36:46.849Z,5.07
2023-03-18T15:39:33.935Z,5.43
2023-03-18T15:42:03.794Z,4.70
2023-03-18T15:44:35.765Z,6.45
2023-03-18T15:47:11.307Z,9.10
2023-03-18T15:49:51.728Z,6.18
2023-03-18T15:52:25.278Z,6.35
2023-03-18T15:54:53.949Z,5.50
2023-03-18T15:57:43.614Z,5.38
2023-03-18T16:00:13.291Z,5.07
2023-03-18T16:02:41.978Z,4.40
2023-03-18T16:05:18.319Z,5.57
2023-03-18T16:07:47.313Z,5.55
2023-03-18T16:10:20.922Z,4.82
2023-03-18T16:12:55.892Z,5.63
2023-03-18T16:15:25.554Z,5.82
2023-03-18T16:17:55.122Z,5.70
2023-03-18T16:20:24.590Z,5.18
2023-03-18T16:22:52.736Z,5.30
2023-03-18T16:25:20.573Z,5.85
2023-03-18T16:27:50.503Z,6.78
2023-03-18T16:30:30.388Z,5.60
2023-03-18T16:32:59.313Z,6.35
2023-03-18T16:35:31.171Z,5.15
2023-03-18T16:38:00.583Z,5.22
2023-03-18T16:40:33.097Z,5.40
2023-03-18T16:43:01.538Z,7.18
2023-03-18T16:45:31.273Z,6.53
2023-03-18T16:48:02.499Z,7.15
2023-03-18T16:50:34.410Z,6.72
2023-03-18T16:53:03.642Z,6.60
2023-03-18T16:55:31.797Z,5.70
2023-03-18T16:58:01.042Z,5.50
2023-03-18T17:00:32.964Z,6.13
2023-03-18T17:03:02.404Z,6.63
2023-03-18T17:05:31.419Z,6.78
2023-03-18T17:07:59.852Z,7.88
2023-03-18T17:10:28.746Z,7.75
2023-03-18T17:13:02.405Z,6.07
2023-03-18T17:18:01.899Z,7.35
2023-03-18T17:20:32.604Z,6.95
2023-03-18T18:27:16.492Z,7.60
2023-03-18T18:29:46.217Z,9.13
2023-03-18T18:32:15.800Z,8.75
2023-03-18T18:34:44.322Z,8.82
2023-03-18T18:37:13.150Z,10.23
2023-03-18T18:39:42.867Z,9.55
2023-03-18T18:42:14.521Z,9.15
2023-03-18T18:44:43.815Z,9.13
2023-03-18T18:47:20.409Z,9.75
2023-03-18T18:49:49.032Z,10.60
2023-03-18T18:52:17.134Z,10.25
2023-03-18T18:54:45.609Z,9.25
2023-03-18T18:57:27.039Z,9.63
2023-03-18T18:59:55.917Z,9.32
2023-03-18T19:02:32.622Z,9.68
2023-03-18T19:05:02.913Z,9.43
2023-03-18T19:07:33.861Z,9.98
2023-03-18T19:10:02.368Z,10.05
2023-03-18T19:12:30.931Z,10.02
2023-03-18T19:14:59.924Z,9.40
2023-03-18T19:17:28.063Z,9.55
2023-03-18T19:19:56.302Z,10.65
2023-03-18T19:22:25.736Z,11.02
2023-03-18T19:24:55.049Z,11.27
2023-03-18T19:27:24.068Z,10.40
2023-03-18T19:30:00.485Z,10.23
2023-03-18T19:32:28.250Z,11.43
2023-03-18T19:34:56.623Z,10.93
2023-03-18T19:37:28.328Z,11.20
2023-03-18T19:39:57.323Z,10.45
2023-03-18T19:42:25.790Z,10.88
2023-03-18T19:44:54.376Z,10.77
2023-03-18T19:47:27.040Z,10.90
2023-03-18T19:49:56.144Z,10.55
2023-03-18T19:52:26.288Z,10.07
2023-03-18T19:54:55.890Z,11.18
2023-03-18T19:57:28.516Z,11.23
2023-03-18T19:59:58.752Z,10.55
2023-03-18T20:02:31.973Z,12.30
2023-03-18T20:05:03.727Z,11.98
2023-03-18T20:07:33.210Z,11.90
2023-03-18T20:10:01.329Z,12.68
2023-03-18T20:12:31.937Z,12.30
2023-03-18T20:15:00.253Z,11.65
2023-03-18T20:17:31.484Z,13.00
2023-03-18T20:20:00.079Z,12.23
2023-03-18T20:22:34.072Z,14.13
2023-03-18T20:25:04.120Z,11.93
2023-03-18T20:27:33.104Z,13.82
2023-03-18T20:30:01.788Z,12.95
2023-03-18T20:32:30.186Z,13.05
2023-03-18T20:34:58.395Z,14.52
2023-03-18T20:37:33.703Z,13.20
2023-03-18T20:40:07.588Z,13.50
2023-03-18T20:45:03.564Z,13.32
2023-03-18T20:47:31.812Z,13.10
2023-03-18T20:49:59.978Z,13.95
2023-03-18T20:52:31.596Z,12.77
2023-03-18T20:55:00.092Z,13.53
2023-03-18T20:57:28.244Z,13.18
2023-03-18T20:59:56.984Z,14.48
2023-03-18T21:02:33.928Z,14.43
2023-03-18T21:05:03.531Z,13.00
2023-03-18T21:07:31.680Z,13.18
2023-03-18T21:10:01.257Z,13.68
2023-03-18T21:12:29.047Z,13.63
2023-03-18T21:14:57.040Z,13.52
2023-03-18T21:17:27.634Z,14.40
2023-03-18T21:20:05.005Z,13.63
2023-03-18T21:22:39.811Z,14.38
2023-03-18T21:25:10.954Z,12.90
2023-03-18T21:27:38.961Z,14.45
2023-03-18T21:30:09.850Z,13.82
2023-03-18T21:32:39.194Z,13.18
2023-03-18T21:35:12.578Z,12.75
2023-03-18T21:37:40.434Z,14.07
2023-03-18T21:40:15.443Z,13.82
2023-03-18T21:42:43.994Z,15.20
2023-03-18T21:45:19.302Z,13.50
2023-03-18T21:51:39.102Z,14.02
2023-03-18T21:54:17.589Z,14.13
2023-03-18T21:56:46.677Z,12.98
2023-03-18T21:59:14.701Z,13.27
2023-03-18T22:01:43.011Z,12.75
2023-03-18T22:04:10.665Z,12.82
2023-03-18T22:06:39.016Z,12.93
2023-03-18T22:09:07.571Z,14.00
2023-03-18T22:11:36.281Z,14.15
2023-03-18T22:14:04.197Z,16.48
2023-03-18T22:16:32.781Z,13.27
2023-03-18T22:19:01.350Z,13.82
2023-03-18T22:21:30.019Z,14.80
2023-03-18T22:24:00.457Z,13.95
2023-03-18T22:26:29.189Z,15.05
2023-03-18T22:28:56.984Z,14.05
2023-03-18T22:31:28.949Z,15.07
2023-03-18T22:33:58.510Z,13.95
2023-03-18T22:36:29.064Z,14.05
2023-03-18T22:38:57.137Z,13.50
2023-03-18T22:41:30.604Z,13.45
2023-03-18T22:44:00.136Z,15.73
2023-03-18T22:46:28.830Z,15.35
2023-03-18T22:48:57.289Z,14.57
2023-03-18T22:51:30.833Z,14.93
2023-03-18T22:53:58.745Z,17.00
2023-03-18T22:56:27.197Z,15.82
2023-03-18T22:58:55.085Z,14.93
2023-03-18T23:01:28.560Z,13.98
2023-03-18T23:06:24.940Z,16.50
2023-03-18T23:08:52.781Z,14.95
2023-03-18T23:11:21.220Z,15.20
2023-03-18T23:13:54.090Z,15.98
2023-03-18T23:16:23.977Z,15.63
2023-03-18T23:18:52.365Z,15.30
2023-03-18T23:21:23.290Z,16.10
2023-03-18T23:23:52.642Z,15.63
2023-03-18T23:26:21.219Z,14.75
2023-03-18T23:28:49.859Z,14.90
2023-03-18T23:31:18.534Z,15.52
2023-03-18T23:33:47.387Z,15.57
2023-03-18T23:36:16.298Z,16.33
2023-03-18T23:38:43.794Z,17.25
2023-03-18T23:41:13.012Z,17.45
2023-03-18T23:43:40.797Z,17.20
2023-03-18T23:46:09.596Z,14.80
2023-03-18T23:48:37.870Z,16.30
2023-03-18T23:51:06.103Z,14.90
2023-03-18T23:53:33.952Z,16.80
2023-03-18T23:56:02.102Z,16.13
2023-03-18T23:58:29.839Z,16.45
